This is the latest recevied weather packets stored in our database for station/object K0FJ-1. If no packets are shown the sender has not sent any weather packets the latest 10 day(s).
| Time | Temp. | Humidity | Pressure | Rain* | Wind** | Luminosity | Snow |
|---|---|---|---|---|---|---|---|
| 1787392503 | 22.22° C | 69% | 1019.1 hPa | 0 mm | - | - | - |
| 1787392203 | 22.22° C | 68% | 1019.1 hPa | 0 mm | - | - | - |
| 1787391905 | 22.22° C | 68% | 1018.9 hPa | 0 mm | - | - | - |
| 1787391603 | 22.22° C | 68% | 1019 hPa | 0.25 mm | - | - | - |
| 1787391303 | 22.78° C | 67% | 1019.2 hPa | 0.25 mm | - | - | - |
| 1787391003 | 22.78° C | 67% | 1019.4 hPa | 0.25 mm | - | - | - |
| 1787390703 | 22.78° C | 66% | 1019.9 hPa | 0.25 mm | - | - | - |
| 1787390403 | 22.78° C | 65% | 1020.3 hPa | 0.25 mm | - | - | - |
| 1787390108 | 22.78° C | 65% | 1020.7 hPa | 0.25 mm | - | - | - |
| 1787389803 | 22.22° C | 66% | 1020.7 hPa | 0.25 mm | - | - | - |
| 1787389503 | 22.22° C | 69% | 1020.6 hPa | 0.25 mm | - | - | - |
| 1787389203 | 22.22° C | 69% | 1019.8 hPa | 0.25 mm | - | - | - |
| 1787388903 | 22.22° C | 69% | 1019.4 hPa | 0.25 mm | - | - | - |
| 1787388603 | 22.22° C | 69% | 1018.8 hPa | 0.25 mm | - | - | - |
| 1787388303 | 22.22° C | 69% | 1018.8 hPa | 0.25 mm | - | - | - |
| 1787388003 | 22.78° C | 67% | 1019.1 hPa | 0 mm | - | - | - |
| 1787387703 | 21.67° C | 69% | 1020.4 hPa | 0.25 mm | - | - | - |
| 1787387403 | 21.11° C | 73% | 1020.8 hPa | 0.51 mm | - | - | - |
| 1787387103 | 21.11° C | 74% | 1022.1 hPa | 0.51 mm | - | - | - |
| 1787386804 | 21.11° C | 75% | 1022.4 hPa | 0.51 mm | - | - | - |
| 1787386503 | 21.67° C | 74% | 1022.8 hPa | 0.51 mm | - | - | - |
| 1787386203 | 22.22° C | 72% | 1022.6 hPa | 0.51 mm | - | - | - |
| 1787385903 | 22.22° C | 71% | 1021.9 hPa | 0.51 mm | - | - | - |
| 1787385603 | 22.22° C | 71% | 1022.5 hPa | 0.76 mm | - | - | - |
| 1787385303 | 21.67° C | 75% | 1023.2 hPa | 0.76 mm | - | - | - |
* Rain latest hour (hover to see other rain measurements)
** Current wind speed in m/s (hover to see current wind gust speed)